KMFV

Accomack County Airport

Melfa, Virginia, USA
METAR KMFV 180815Z AUTO 24004KT 10SM OVC080 07/03 A3014 RMK AO2 T00720026
Observed Flight Rules
Dec-18 @ 08:15 UTC (31 minutes ago) Visual Flight Rules
Wind Visibility Clouds
240° at 4 knots 10 miles
  • Overcast at 8,000' AGL
Temperatures Readings
Current 7°C / 45°F
Dewpoint 3°C / 37°F
Humidity 76%
Altimeter 30.14" Hg
Pressure 1021 hPa
Elevation 15
METAR KMFV 180815Z AUTO 24004KT 10SM OVC080 07/03 A3014 RMK AO2 T00720026
Observed Flight Rules
Dec-18 @ 08:15 UTC
(31 minutes ago)
VFR
Wind Visibility
240° at 4 knots 10 miles
Clouds
  • Overcast at 8,000' AGL
Temperature Dewpoint
7°C / 45°F 3°C / 37°F
Humidity Altimeter Pressure
76% 30.14" Hg 1021 hPa